Aviation Digital Data Service (ADDS)

Output produced by METARs form (1116 UTC 19 February 2019)
found at http://www.aviationweather.gov/metar/data/
 
METAR text: KBHM 191053Z 05007KT 10SM OVC065 04/02 A3038 RMK AO2 RAB0956E49 SLP287 P0005 T00440022
Conditions at: KBHM (BIRMINGHAM , AL, US) observed 1053 UTC 19 February 2019
Temperature: 4.4°C (40°F)
Dewpoint: 2.2°C (36°F) [RH = 86%]
Pressure (altimeter): 30.38 inches Hg (1028.9 mb)
[Sea-level pressure: 1028.7 mb]
Winds: from the NE (50 degrees) at 8 MPH (7 knots; 3.6 m/s)
Visibility: 10 or more miles (16+ km)
Ceiling: 6500 feet AGL
Clouds: overcast cloud deck at 6500 feet AGL
Weather: no significant weather observed at this time

METAR text: KBHM 190953Z 05008KT 10SM BKN050 OVC080 04/02 A3036 RMK AO2 RAE36 SLP282 P0006 T00440022
Conditions at: KBHM (BIRMINGHAM , AL, US) observed 0953 UTC 19 February 2019
Temperature: 4.4°C (40°F)
Dewpoint: 2.2°C (36°F) [RH = 86%]
Pressure (altimeter): 30.36 inches Hg (1028.2 mb)
[Sea-level pressure: 1028.2 mb]
Winds: from the NE (50 degrees) at 9 MPH (8 knots; 4.1 m/s)
Visibility: 10 or more miles (16+ km)
Ceiling: 5000 feet AGL
Clouds: broken clouds at 5000 feet AGL
overcast cloud deck at 8000 feet AGL
Weather: no significant weather observed at this time

METAR text: KBHM 190853Z 03007KT 10SM -RA OVC070 05/02 A3038 RMK AO2 SLP287 P0002 60004 T00500022 55009
Conditions at: KBHM (BIRMINGHAM , AL, US) observed 0853 UTC 19 February 2019
Temperature: 5.0°C (41°F)
Dewpoint: 2.2°C (36°F) [RH = 82%]
Pressure (altimeter): 30.38 inches Hg (1028.9 mb)
[Sea-level pressure: 1028.7 mb]
Winds: from the NNE (30 degrees) at 8 MPH (7 knots; 3.6 m/s)
Visibility: 10 or more miles (16+ km)
Ceiling: 7000 feet AGL
Clouds: overcast cloud deck at 7000 feet AGL
Weather: -RA  (light rain)

METAR text: KBHM 190753Z 02006KT 10SM -RA BKN070 OVC100 06/02 A3037 RMK AO2 RAB09 SLP284 P0001 T00560022
Conditions at: KBHM (BIRMINGHAM , AL, US) observed 0753 UTC 19 February 2019
Temperature: 5.6°C (42°F)
Dewpoint: 2.2°C (36°F) [RH = 79%]
Pressure (altimeter): 30.37 inches Hg (1028.5 mb)
[Sea-level pressure: 1028.4 mb]
Winds: from the NNE (20 degrees) at 7 MPH (6 knots; 3.1 m/s)
Visibility: 10 or more miles (16+ km)
Ceiling: 7000 feet AGL
Clouds: broken clouds at 7000 feet AGL
overcast cloud deck at 10000 feet AGL
Weather: -RA  (light rain)

METAR text: KBHM 190653Z 02005KT 10SM FEW070 OVC095 06/03 A3037 RMK AO2 RAB14E39 SLP285 P0001 T00560028
Conditions at: KBHM (BIRMINGHAM , AL, US) observed 0653 UTC 19 February 2019
Temperature: 5.6°C (42°F)
Dewpoint: 2.8°C (37°F) [RH = 82%]
Pressure (altimeter): 30.37 inches Hg (1028.5 mb)
[Sea-level pressure: 1028.5 mb]
Winds: from the NNE (20 degrees) at 6 MPH (5 knots; 2.6 m/s)
Visibility: 10 or more miles (16+ km)
Ceiling: 9500 feet AGL
Clouds: few clouds at 7000 feet AGL
overcast cloud deck at 9500 feet AGL
Weather: no significant weather observed at this time

METAR text: KBHM 190553Z 30003KT 10SM OVC095 07/01 A3041 RMK AO2 PRESRR SLP297 T00670011 10078 20056 401170050 53009
Conditions at: KBHM (BIRMINGHAM , AL, US) observed 0553 UTC 19 February 2019
Temperature: 6.7°C (44°F)
Dewpoint: 1.1°C (34°F) [RH = 67%]
Pressure (altimeter): 30.41 inches Hg (1029.9 mb)
[Sea-level pressure: 1029.7 mb]
Winds: from the WNW (300 degrees) at 3 MPH (3 knots; 1.5 m/s)
Visibility: 10 or more miles (16+ km)
Ceiling: 9500 feet AGL
Clouds: overcast cloud deck at 9500 feet AGL
Weather: no significant weather observed at this time

METAR text: KBHM 190453Z 04003KT 10SM OVC100 07/01 A3039 RMK AO2 SLP293 T00670006
Conditions at: KBHM (BIRMINGHAM , AL, US) observed 0453 UTC 19 February 2019
Temperature: 6.7°C (44°F)
Dewpoint: 0.6°C (33°F) [RH = 65%]
Pressure (altimeter): 30.39 inches Hg (1029.2 mb)
[Sea-level pressure: 1029.3 mb]
Winds: from the NE (40 degrees) at 3 MPH (3 knots; 1.5 m/s)
Visibility: 10 or more miles (16+ km)
Ceiling: 10000 feet AGL
Clouds: overcast cloud deck at 10000 feet AGL
Weather: no significant weather observed at this time

METAR text: KBHM 190353Z 01006KT 10SM BKN110 07/01 A3039 RMK AO2 SLP290 T00670011
Conditions at: KBHM (BIRMINGHAM , AL, US) observed 0353 UTC 19 February 2019
Temperature: 6.7°C (44°F)
Dewpoint: 1.1°C (34°F) [RH = 67%]
Pressure (altimeter): 30.39 inches Hg (1029.2 mb)
[Sea-level pressure: 1029.0 mb]
Winds: from the N (10 degrees) at 7 MPH (6 knots; 3.1 m/s)
Visibility: 10 or more miles (16+ km)
Ceiling: 11000 feet AGL
Clouds: broken clouds at 11000 feet AGL
Weather: no significant weather observed at this time

METAR text: KBHM 190253Z 03005KT 10SM SCT140 OVC200 07/02 A3038 RMK AO2 SLP288 T00670017 51018
Conditions at: KBHM (BIRMINGHAM , AL, US) observed 0253 UTC 19 February 2019
Temperature: 6.7°C (44°F)
Dewpoint: 1.7°C (35°F) [RH = 70%]
Pressure (altimeter): 30.38 inches Hg (1028.9 mb)
[Sea-level pressure: 1028.8 mb]
Winds: from the NNE (30 degrees) at 6 MPH (5 knots; 2.6 m/s)
Visibility: 10 or more miles (16+ km)
Ceiling: 20000 feet AGL
Clouds: scattered clouds at 14000 feet AGL
overcast cloud deck at 20000 feet AGL
Weather: no significant weather observed at this time

METAR text: KBHM 190153Z 36008KT 10SM SCT140 BKN200 06/02 A3037 RMK AO2 SLP287 T00560022
Conditions at: KBHM (BIRMINGHAM , AL, US) observed 0153 UTC 19 February 2019
Temperature: 5.6°C (42°F)
Dewpoint: 2.2°C (36°F) [RH = 79%]
Pressure (altimeter): 30.37 inches Hg (1028.5 mb)
[Sea-level pressure: 1028.7 mb]
Winds: from the N (360 degrees) at 9 MPH (8 knots; 4.1 m/s)
Visibility: 10 or more miles (16+ km)
Ceiling: 20000 feet AGL
Clouds: scattered clouds at 14000 feet AGL
broken clouds at 20000 feet AGL
Weather: no significant weather observed at this time

METAR text: KBHM 190053Z 34006KT 10SM SCT140 BKN200 07/02 A3038 RMK AO2 SLP289 T00670017
Conditions at: KBHM (BIRMINGHAM , AL, US) observed 0053 UTC 19 February 2019
Temperature: 6.7°C (44°F)
Dewpoint: 1.7°C (35°F) [RH = 70%]
Pressure (altimeter): 30.38 inches Hg (1028.9 mb)
[Sea-level pressure: 1028.9 mb]
Winds: from the NNW (340 degrees) at 7 MPH (6 knots; 3.1 m/s)
Visibility: 10 or more miles (16+ km)
Ceiling: 20000 feet AGL
Clouds: scattered clouds at 14000 feet AGL
broken clouds at 20000 feet AGL
Weather: no significant weather observed at this time

METAR text: KBHM 182353Z 36005KT 10SM SCT140 BKN200 08/02 A3033 RMK AO2 SLP269 T00780017 10117 20078 53014
Conditions at: KBHM (BIRMINGHAM , AL, US) observed 2353 UTC 18 February 2019
Temperature: 7.8°C (46°F)
Dewpoint: 1.7°C (35°F) [RH = 65%]
Pressure (altimeter): 30.33 inches Hg (1027.2 mb)
[Sea-level pressure: 1026.9 mb]
Winds: from the N (360 degrees) at 6 MPH (5 knots; 2.6 m/s)
Visibility: 10 or more miles (16+ km)
Ceiling: 20000 feet AGL
Clouds: scattered clouds at 14000 feet AGL
broken clouds at 20000 feet AGL
Weather: no significant weather observed at this time

METAR text: KBHM 182253Z 01010KT 10SM SCT140 BKN200 10/01 A3029 RMK AO2 SLP257 T01000006
Conditions at: KBHM (BIRMINGHAM , AL, US) observed 2253 UTC 18 February 2019
Temperature: 10.0°C (50°F)
Dewpoint: 0.6°C (33°F) [RH = 52%]
Pressure (altimeter): 30.29 inches Hg (1025.8 mb)
[Sea-level pressure: 1025.7 mb]
Winds: from the N (10 degrees) at 12 MPH (10 knots; 5.1 m/s)
Visibility: 10 or more miles (16+ km)
Ceiling: 20000 feet AGL
Clouds: scattered clouds at 14000 feet AGL
broken clouds at 20000 feet AGL
Weather: no significant weather observed at this time

METAR text: KBHM 182153Z 35011KT 10SM BKN140 BKN200 11/02 A3028 RMK AO2 SLP252 T01110017
Conditions at: KBHM (BIRMINGHAM , AL, US) observed 2153 UTC 18 February 2019
Temperature: 11.1°C (52°F)
Dewpoint: 1.7°C (35°F) [RH = 52%]
Pressure (altimeter): 30.28 inches Hg (1025.5 mb)
[Sea-level pressure: 1025.2 mb]
Winds: from the N (350 degrees) at 13 MPH (11 knots; 5.7 m/s)
Visibility: 10 or more miles (16+ km)
Ceiling: 14000 feet AGL
Clouds: broken clouds at 14000 feet AGL
broken clouds at 20000 feet AGL
Weather: no significant weather observed at this time

METAR text: KBHM 182053Z 02006KT 10SM BKN140 BKN200 10/02 A3028 RMK AO2 SLP255 T01000017 55009
Conditions at: KBHM (BIRMINGHAM , AL, US) observed 2053 UTC 18 February 2019
Temperature: 10.0°C (50°F)
Dewpoint: 1.7°C (35°F) [RH = 56%]
Pressure (altimeter): 30.28 inches Hg (1025.5 mb)
[Sea-level pressure: 1025.5 mb]
Winds: from the NNE (20 degrees) at 7 MPH (6 knots; 3.1 m/s)
Visibility: 10 or more miles (16+ km)
Ceiling: 14000 feet AGL
Clouds: broken clouds at 14000 feet AGL
broken clouds at 20000 feet AGL
Weather: no significant weather observed at this time

METAR text: KBHM 181953Z 35011KT 10SM BKN150 BKN250 11/02 A3028 RMK AO2 SLP252 T01060022
Conditions at: KBHM (BIRMINGHAM , AL, US) observed 1953 UTC 18 February 2019
Temperature: 10.6°C (51°F)
Dewpoint: 2.2°C (36°F) [RH = 56%]
Pressure (altimeter): 30.28 inches Hg (1025.5 mb)
[Sea-level pressure: 1025.2 mb]
Winds: from the N (350 degrees) at 13 MPH (11 knots; 5.7 m/s)
Visibility: 10 or more miles (16+ km)
Ceiling: 15000 feet AGL
Clouds: broken clouds at 15000 feet AGL
broken clouds at 25000 feet AGL
Weather: no significant weather observed at this time

METAR text: KBHM 181853Z 36010KT 10SM BKN150 BKN250 09/02 A3029 RMK AO2 SLP255 T00940022
Conditions at: KBHM (BIRMINGHAM , AL, US) observed 1853 UTC 18 February 2019
Temperature: 9.4°C (49°F)
Dewpoint: 2.2°C (36°F) [RH = 61%]
Pressure (altimeter): 30.29 inches Hg (1025.8 mb)
[Sea-level pressure: 1025.5 mb]
Winds: from the N (360 degrees) at 12 MPH (10 knots; 5.1 m/s)
Visibility: 10 or more miles (16+ km)
Ceiling: 15000 feet AGL
Clouds: broken clouds at 15000 feet AGL
broken clouds at 25000 feet AGL
Weather: no significant weather observed at this time

METAR text: KBHM 181753Z 35009KT 10SM BKN250 09/02 A3031 RMK AO2 SLP264 T00940022 10100 20050 51006
Conditions at: KBHM (BIRMINGHAM , AL, US) observed 1753 UTC 18 February 2019
Temperature: 9.4°C (49°F)
Dewpoint: 2.2°C (36°F) [RH = 61%]
Pressure (altimeter): 30.31 inches Hg (1026.5 mb)
[Sea-level pressure: 1026.4 mb]
Winds: from the N (350 degrees) at 10 MPH (9 knots; 4.6 m/s)
Visibility: 10 or more miles (16+ km)
Ceiling: 25000 feet AGL
Clouds: broken clouds at 25000 feet AGL
Weather: no significant weather observed at this time

METAR text: KBHM 181653Z 34011G14KT 300V030 10SM FEW017 BKN150 09/03 A3031 RMK AO2 SLP263 T00940028
Conditions at: KBHM (BIRMINGHAM , AL, US) observed 1653 UTC 18 February 2019
Temperature: 9.4°C (49°F)
Dewpoint: 2.8°C (37°F) [RH = 63%]
Pressure (altimeter): 30.31 inches Hg (1026.5 mb)
[Sea-level pressure: 1026.3 mb]
Winds: from the NNW (340 degrees) at 13 MPH (11 knots; 5.7 m/s)
gusting to 16 MPH (14 knots; 7.2 m/s)
Visibility: 10 or more miles (16+ km)
Ceiling: 15000 feet AGL
Clouds: few clouds at 1700 feet AGL
broken clouds at 15000 feet AGL
Weather: no significant weather observed at this time

METAR text: KBHM 181553Z 01009KT 10SM FEW017 BKN150 09/03 A3030 RMK AO2 SLP259 T00940033
Conditions at: KBHM (BIRMINGHAM , AL, US) observed 1553 UTC 18 February 2019
Temperature: 9.4°C (49°F)
Dewpoint: 3.3°C (38°F) [RH = 66%]
Pressure (altimeter): 30.30 inches Hg (1026.2 mb)
[Sea-level pressure: 1025.9 mb]
Winds: from the N (10 degrees) at 10 MPH (9 knots; 4.6 m/s)
Visibility: 10 or more miles (16+ km)
Ceiling: 15000 feet AGL
Clouds: few clouds at 1700 feet AGL
broken clouds at 15000 feet AGL
Weather: no significant weather observed at this time

METAR text: KBHM 181546Z 01008KT 10SM SCT017 BKN150 09/04 A3030 RMK AO2 T00890039
Conditions at: KBHM (BIRMINGHAM , AL, US) observed 1546 UTC 18 February 2019
Temperature: 8.9°C (48°F)
Dewpoint: 3.9°C (39°F) [RH = 71%]
Pressure (altimeter): 30.30 inches Hg (1026.2 mb)
Winds: from the N (10 degrees) at 9 MPH (8 knots; 4.1 m/s)
Visibility: 10 or more miles (16+ km)
Ceiling: 15000 feet AGL
Clouds: scattered clouds at 1700 feet AGL
broken clouds at 15000 feet AGL
Weather: no significant weather observed at this time

METAR text: KBHM 181453Z 36008KT 10SM BKN016 BKN150 07/03 A3029 RMK AO2 SLP258 T00670033 51037
Conditions at: KBHM (BIRMINGHAM , AL, US) observed 1453 UTC 18 February 2019
Temperature: 6.7°C (44°F)
Dewpoint: 3.3°C (38°F) [RH = 79%]
Pressure (altimeter): 30.29 inches Hg (1025.8 mb)
[Sea-level pressure: 1025.8 mb]
Winds: from the N (360 degrees) at 9 MPH (8 knots; 4.1 m/s)
Visibility: 10 or more miles (16+ km)
Ceiling: 1600 feet AGL
Clouds: broken clouds at 1600 feet AGL
broken clouds at 15000 feet AGL
Weather: no significant weather observed at this time

METAR text: KBHM 181353Z 35009KT 10SM BKN018 06/03 A3026 RMK AO2 SLP247 T00560028
Conditions at: KBHM (BIRMINGHAM , AL, US) observed 1353 UTC 18 February 2019
Temperature: 5.6°C (42°F)
Dewpoint: 2.8°C (37°F) [RH = 82%]
Pressure (altimeter): 30.26 inches Hg (1024.8 mb)
[Sea-level pressure: 1024.7 mb]
Winds: from the N (350 degrees) at 10 MPH (9 knots; 4.6 m/s)
Visibility: 10 or more miles (16+ km)
Ceiling: 1800 feet AGL
Clouds: broken clouds at 1800 feet AGL
Weather: no significant weather observed at this time

METAR text: KBHM 181253Z 35009KT 10SM OVC016 06/03 A3022 RMK AO2 SLP233 T00560033
Conditions at: KBHM (BIRMINGHAM , AL, US) observed 1253 UTC 18 February 2019
Temperature: 5.6°C (42°F)
Dewpoint: 3.3°C (38°F) [RH = 85%]
Pressure (altimeter): 30.22 inches Hg (1023.5 mb)
[Sea-level pressure: 1023.3 mb]
Winds: from the N (350 degrees) at 10 MPH (9 knots; 4.6 m/s)
Visibility: 10 or more miles (16+ km)
Ceiling: 1600 feet AGL
Clouds: overcast cloud deck at 1600 feet AGL
Weather: no significant weather observed at this time

METAR text: KBHM 181243Z 35010KT 10SM OVC015 06/03 A3021 RMK AO2 T00560033
Conditions at: KBHM (BIRMINGHAM , AL, US) observed 1243 UTC 18 February 2019
Temperature: 5.6°C (42°F)
Dewpoint: 3.3°C (38°F) [RH = 85%]
Pressure (altimeter): 30.21 inches Hg (1023.1 mb)
Winds: from the N (350 degrees) at 12 MPH (10 knots; 5.1 m/s)
Visibility: 10 or more miles (16+ km)
Ceiling: 1500 feet AGL
Clouds: overcast cloud deck at 1500 feet AGL
Weather: no significant weather observed at this time

METAR text: KBHM 181228Z 36011KT 10SM OVC014 06/03 A3019 RMK AO2 T00560033
Conditions at: KBHM (BIRMINGHAM , AL, US) observed 1228 UTC 18 February 2019
Temperature: 5.6°C (42°F)
Dewpoint: 3.3°C (38°F) [RH = 85%]
Pressure (altimeter): 30.19 inches Hg (1022.4 mb)
Winds: from the N (360 degrees) at 13 MPH (11 knots; 5.7 m/s)
Visibility: 10 or more miles (16+ km)
Ceiling: 1400 feet AGL
Clouds: overcast cloud deck at 1400 feet AGL
Weather: no significant weather observed at this time

METAR text: KBHM 181153Z 34009KT 10SM FEW012 OVC018 06/04 A3018 RMK AO2 SLP219 60006 70052 T00610039 10094 20061 53028
Conditions at: KBHM (BIRMINGHAM , AL, US) observed 1153 UTC 18 February 2019
Temperature: 6.1°C (43°F)
Dewpoint: 3.9°C (39°F) [RH = 86%]
Pressure (altimeter): 30.18 inches Hg (1022.1 mb)
[Sea-level pressure: 1021.9 mb]
Winds: from the NNW (340 degrees) at 10 MPH (9 knots; 4.6 m/s)
Visibility: 10 or more miles (16+ km)
Ceiling: 1800 feet AGL
Clouds: few clouds at 1200 feet AGL
overcast cloud deck at 1800 feet AGL
Weather: no significant weather observed at this time

METAR text: KBHM 181135Z 34010KT 10SM SCT010 OVC018 06/04 A3017 RMK AO2 T00610039
Conditions at: KBHM (BIRMINGHAM , AL, US) observed 1135 UTC 18 February 2019
Temperature: 6.1°C (43°F)
Dewpoint: 3.9°C (39°F) [RH = 86%]
Pressure (altimeter): 30.17 inches Hg (1021.8 mb)
Winds: from the NNW (340 degrees) at 12 MPH (10 knots; 5.1 m/s)
Visibility: 10 or more miles (16+ km)
Ceiling: 1800 feet AGL
Clouds: scattered clouds at 1000 feet AGL
overcast cloud deck at 1800 feet AGL
Weather: no significant weather observed at this time

METAR text: KBHM 181053Z 34007KT 10SM BKN010 OVC016 07/06 A3012 RMK AO2 CIG 008V013 SLP199 T00670056
Conditions at: KBHM (BIRMINGHAM , AL, US) observed 1053 UTC 18 February 2019
Temperature: 6.7°C (44°F)
Dewpoint: 5.6°C (42°F) [RH = 93%]
Pressure (altimeter): 30.12 inches Hg (1020.1 mb)
[Sea-level pressure: 1019.9 mb]
Winds: from the NNW (340 degrees) at 8 MPH (7 knots; 3.6 m/s)
Visibility: 10 or more miles (16+ km)
Ceiling: 1000 feet AGL
Clouds: broken clouds at 1000 feet AGL
overcast cloud deck at 1600 feet AGL
Weather: no significant weather observed at this time

METAR text: KBHM 181039Z 31007KT 10SM BKN010 OVC017 07/06 A3012 RMK AO2 CIG 008V013 T00670056
Conditions at: KBHM (BIRMINGHAM , AL, US) observed 1039 UTC 18 February 2019
Temperature: 6.7°C (44°F)
Dewpoint: 5.6°C (42°F) [RH = 93%]
Pressure (altimeter): 30.12 inches Hg (1020.1 mb)
Winds: from the NW (310 degrees) at 8 MPH (7 knots; 3.6 m/s)
Visibility: 10 or more miles (16+ km)
Ceiling: 1000 feet AGL
Clouds: broken clouds at 1000 feet AGL
overcast cloud deck at 1700 feet AGL
Weather: no significant weather observed at this time

METAR text: KBHM 180953Z 32008KT 10SM BKN009 OVC014 07/06 A3010 RMK AO2 CIG 006V011 SLP189 T00720061
Conditions at: KBHM (BIRMINGHAM , AL, US) observed 0953 UTC 18 February 2019
Temperature: 7.2°C (45°F)
Dewpoint: 6.1°C (43°F) [RH = 93%]
Pressure (altimeter): 30.10 inches Hg (1019.4 mb)
[Sea-level pressure: 1018.9 mb]
Winds: from the NW (320 degrees) at 9 MPH (8 knots; 4.1 m/s)
Visibility: 10 or more miles (16+ km)
Ceiling: 900 feet AGL
Clouds: broken clouds at 900 feet AGL
overcast cloud deck at 1400 feet AGL
Weather: no significant weather observed at this time

METAR text: KBHM 180950Z 32006KT 10SM SCT009 OVC014 07/06 A3010 RMK AO2
Conditions at: KBHM (BIRMINGHAM , AL, US) observed 0950 UTC 18 February 2019
Temperature: 7.0°C (45°F)
Dewpoint: 6.0°C (43°F) [RH = 93%]
Pressure (altimeter): 30.10 inches Hg (1019.4 mb)
Winds: from the NW (320 degrees) at 7 MPH (6 knots; 3.1 m/s)
Visibility: 10 or more miles (16+ km)
Ceiling: 1400 feet AGL
Clouds: scattered clouds at 900 feet AGL
overcast cloud deck at 1400 feet AGL
Weather: no significant weather observed at this time

METAR text: KBHM 180942Z 33005KT 10SM SCT009 OVC015 07/06 A3009 RMK AO2 T00720061
Conditions at: KBHM (BIRMINGHAM , AL, US) observed 0942 UTC 18 February 2019
Temperature: 7.2°C (45°F)
Dewpoint: 6.1°C (43°F) [RH = 93%]
Pressure (altimeter): 30.09 inches Hg (1019.0 mb)
Winds: from the NNW (330 degrees) at 6 MPH (5 knots; 2.6 m/s)
Visibility: 10 or more miles (16+ km)
Ceiling: 1500 feet AGL
Clouds: scattered clouds at 900 feet AGL
overcast cloud deck at 1500 feet AGL
Weather: no significant weather observed at this time

METAR text: KBHM 180853Z 35005KT 10SM BKN020 OVC075 07/06 A3007 RMK AO2 RAE20 SLP181 P0003 60006 T00720056 50019
Conditions at: KBHM (BIRMINGHAM , AL, US) observed 0853 UTC 18 February 2019
Temperature: 7.2°C (45°F)
Dewpoint: 5.6°C (42°F) [RH = 90%]
Pressure (altimeter): 30.07 inches Hg (1018.4 mb)
[Sea-level pressure: 1018.1 mb]
Winds: from the N (350 degrees) at 6 MPH (5 knots; 2.6 m/s)
Visibility: 10 or more miles (16+ km)
Ceiling: 2000 feet AGL
Clouds: broken clouds at 2000 feet AGL
overcast cloud deck at 7500 feet AGL
Weather: no significant weather observed at this time

METAR text: KBHM 180753Z 32006KT 4SM RA BR OVC060 07/06 A3008 RMK AO2 RAE0659B25 SLP184 P0003 T00720056
Conditions at: KBHM (BIRMINGHAM , AL, US) observed 0753 UTC 18 February 2019
Temperature: 7.2°C (45°F)
Dewpoint: 5.6°C (42°F) [RH = 90%]
Pressure (altimeter): 30.08 inches Hg (1018.7 mb)
[Sea-level pressure: 1018.4 mb]
Winds: from the NW (320 degrees) at 7 MPH (6 knots; 3.1 m/s)
Visibility: 4 miles ( 6 km)
Ceiling: 6000 feet AGL
Clouds: overcast cloud deck at 6000 feet AGL
Weather: RA BR  (moderate rain, mist)

METAR text: KBHM 180653Z 32011KT 10SM -RA OVC055 09/07 A3007 RMK AO2 RAB47 SLP181 P0000 T00890072
Conditions at: KBHM (BIRMINGHAM , AL, US) observed 0653 UTC 18 February 2019
Temperature: 8.9°C (48°F)
Dewpoint: 7.2°C (45°F) [RH = 89%]
Pressure (altimeter): 30.07 inches Hg (1018.4 mb)
[Sea-level pressure: 1018.1 mb]
Winds: from the NW (320 degrees) at 13 MPH (11 knots; 5.7 m/s)
Visibility: 10 or more miles (16+ km)
Ceiling: 5500 feet AGL
Clouds: overcast cloud deck at 5500 feet AGL
Weather: -RA  (light rain)

METAR text: KBHM 180553Z 36009KT 10SM OVC050 09/07 A3001 RMK AO2 SLP160 60025 T00940072 10178 20094 401830094 51017
Conditions at: KBHM (BIRMINGHAM , AL, US) observed 0553 UTC 18 February 2019
Temperature: 9.4°C (49°F)
Dewpoint: 7.2°C (45°F) [RH = 86%]
Pressure (altimeter): 30.01 inches Hg (1016.3 mb)
[Sea-level pressure: 1016.0 mb]
Winds: from the N (360 degrees) at 10 MPH (9 knots; 4.6 m/s)
Visibility: 10 or more miles (16+ km)
Ceiling: 5000 feet AGL
Clouds: overcast cloud deck at 5000 feet AGL
Weather: no significant weather observed at this time

METAR text: KBHM 180453Z 34008KT 10SM SCT009 OVC048 10/08 A3000 RMK AO2 RAB28E48 SLP155 P0000 T01000083
Conditions at: KBHM (BIRMINGHAM , AL, US) observed 0453 UTC 18 February 2019
Temperature: 10.0°C (50°F)
Dewpoint: 8.3°C (47°F) [RH = 89%]
Pressure (altimeter): 30.00 inches Hg (1016.0 mb)
[Sea-level pressure: 1015.5 mb]
Winds: from the NNW (340 degrees) at 9 MPH (8 knots; 4.1 m/s)
Visibility: 10 or more miles (16+ km)
Ceiling: 4800 feet AGL
Clouds: scattered clouds at 900 feet AGL
overcast cloud deck at 4800 feet AGL
Weather: no significant weather observed at this time

METAR text: KBHM 180420Z 31006KT 10SM BKN009 OVC043 11/09 A2999 RMK AO2 T01110094
Conditions at: KBHM (BIRMINGHAM , AL, US) observed 0420 UTC 18 February 2019
Temperature: 11.1°C (52°F)
Dewpoint: 9.4°C (49°F) [RH = 89%]
Pressure (altimeter): 29.99 inches Hg (1015.7 mb)
Winds: from the NW (310 degrees) at 7 MPH (6 knots; 3.1 m/s)
Visibility: 10 or more miles (16+ km)
Ceiling: 900 feet AGL
Clouds: broken clouds at 900 feet AGL
overcast cloud deck at 4300 feet AGL
Weather: no significant weather observed at this time

METAR text: KBHM 180353Z 32006KT 9SM FEW030 OVC043 11/10 A2998 RMK AO2 RAE26 SLP151 P0002 T01110100
Conditions at: KBHM (BIRMINGHAM , AL, US) observed 0353 UTC 18 February 2019
Temperature: 11.1°C (52°F)
Dewpoint: 10.0°C (50°F) [RH = 93%]
Pressure (altimeter): 29.98 inches Hg (1015.3 mb)
[Sea-level pressure: 1015.1 mb]
Winds: from the NW (320 degrees) at 7 MPH (6 knots; 3.1 m/s)
Visibility: 9 miles (14 km)
Ceiling: 4300 feet AGL
Clouds: few clouds at 3000 feet AGL
overcast cloud deck at 4300 feet AGL
Weather: no significant weather observed at this time

METAR text: KBHM 180341Z 33009KT 10SM FEW025 FEW030 OVC044 11/09 A2998 RMK AO2 RAE26 P0001 T01110094
Conditions at: KBHM (BIRMINGHAM , AL, US) observed 0341 UTC 18 February 2019
Temperature: 11.1°C (52°F)
Dewpoint: 9.4°C (49°F) [RH = 89%]
Pressure (altimeter): 29.98 inches Hg (1015.3 mb)
Winds: from the NNW (330 degrees) at 10 MPH (9 knots; 4.6 m/s)
Visibility: 10 or more miles (16+ km)
Ceiling: 4400 feet AGL
Clouds: few clouds at 2500 feet AGL
few clouds at 3000 feet AGL
overcast cloud deck at 4400 feet AGL
Weather: no significant weather observed at this time

METAR text: KBHM 180330Z 34008KT 10SM SCT007 BKN029 OVC042 12/09 A2997 RMK AO2 RAE26 P0001 T01170094
Conditions at: KBHM (BIRMINGHAM , AL, US) observed 0330 UTC 18 February 2019
Temperature: 11.7°C (53°F)
Dewpoint: 9.4°C (49°F) [RH = 86%]
Pressure (altimeter): 29.97 inches Hg (1015.0 mb)
Winds: from the NNW (340 degrees) at 9 MPH (8 knots; 4.1 m/s)
Visibility: 10 or more miles (16+ km)
Ceiling: 2900 feet AGL
Clouds: scattered clouds at 700 feet AGL
broken clouds at 2900 feet AGL
overcast cloud deck at 4200 feet AGL
Weather: no significant weather observed at this time

METAR text: KBHM 180323Z 34010KT 7SM -RA SCT007 BKN012 OVC042 12/10 A2997 RMK AO2 P0001 T01170100
Conditions at: KBHM (BIRMINGHAM , AL, US) observed 0323 UTC 18 February 2019
Temperature: 11.7°C (53°F)
Dewpoint: 10.0°C (50°F) [RH = 89%]
Pressure (altimeter): 29.97 inches Hg (1015.0 mb)
Winds: from the NNW (340 degrees) at 12 MPH (10 knots; 5.1 m/s)
Visibility: 7 miles (11 km)
Ceiling: 1200 feet AGL
Clouds: scattered clouds at 700 feet AGL
broken clouds at 1200 feet AGL
overcast cloud deck at 4200 feet AGL
Weather: -RA  (light rain)

METAR text: KBHM 180310Z 35010G15KT 4SM -RA BR BKN007 BKN012 OVC019 12/11 A2997 RMK AO2 CIG 004V010 P0001 T01220111
Conditions at: KBHM (BIRMINGHAM , AL, US) observed 0310 UTC 18 February 2019
Temperature: 12.2°C (54°F)
Dewpoint: 11.1°C (52°F) [RH = 93%]
Pressure (altimeter): 29.97 inches Hg (1015.0 mb)
Winds: from the N (350 degrees) at 12 MPH (10 knots; 5.1 m/s)
gusting to 17 MPH (15 knots; 7.7 m/s)
Visibility: 4 miles ( 6 km)
Ceiling: 700 feet AGL
Clouds: broken clouds at 700 feet AGL
broken clouds at 1200 feet AGL
overcast cloud deck at 1900 feet AGL
Weather: -RA BR  (light rain, mist)

METAR text: KBHM 180253Z 31009KT 4SM -RA BR SCT009 BKN014 OVC023 12/11 A2996 RMK AO2 RAB45 SLP143 P0000 60023 T01220111 51022
Conditions at: KBHM (BIRMINGHAM , AL, US) observed 0253 UTC 18 February 2019
Temperature: 12.2°C (54°F)
Dewpoint: 11.1°C (52°F) [RH = 93%]
Pressure (altimeter): 29.96 inches Hg (1014.6 mb)
[Sea-level pressure: 1014.3 mb]
Winds: from the NW (310 degrees) at 10 MPH (9 knots; 4.6 m/s)
Visibility: 4 miles ( 6 km)
Ceiling: 1400 feet AGL
Clouds: scattered clouds at 900 feet AGL
broken clouds at 1400 feet AGL
overcast cloud deck at 2300 feet AGL
Weather: -RA BR  (light rain, mist)

METAR text: KBHM 180248Z 29009KT 5SM -RA BR SCT009 BKN014 OVC041 12/12 A2996 RMK AO2 RAB45 P0000
Conditions at: KBHM (BIRMINGHAM , AL, US) observed 0248 UTC 18 February 2019
Temperature: 12.0°C (54°F)
Dewpoint: 12.0°C (54°F) [RH = 100%]
Pressure (altimeter): 29.96 inches Hg (1014.6 mb)
Winds: from the WNW (290 degrees) at 10 MPH (9 knots; 4.6 m/s)
Visibility: 5 miles ( 8 km)
Ceiling: 1400 feet AGL
Clouds: scattered clouds at 900 feet AGL
broken clouds at 1400 feet AGL
overcast cloud deck at 4100 feet AGL
Weather: -RA BR  (light rain, mist)

METAR text: KBHM 180230Z 29008KT 8SM SCT009 BKN016 OVC040 13/12 A2995 RMK AO2 T01280117
Conditions at: KBHM (BIRMINGHAM , AL, US) observed 0230 UTC 18 February 2019
Temperature: 12.8°C (55°F)
Dewpoint: 11.7°C (53°F) [RH = 93%]
Pressure (altimeter): 29.95 inches Hg (1014.3 mb)
Winds: from the WNW (290 degrees) at 9 MPH (8 knots; 4.1 m/s)
Visibility: 8 miles (13 km)
Ceiling: 1600 feet AGL
Clouds: scattered clouds at 900 feet AGL
broken clouds at 1600 feet AGL
overcast cloud deck at 4000 feet AGL
Weather: no significant weather observed at this time

METAR text: KBHM 180219Z 30009KT 10SM BKN009 OVC018 13/11 A2994 RMK AO2 CIG 007V014 T01280111
Conditions at: KBHM (BIRMINGHAM , AL, US) observed 0219 UTC 18 February 2019
Temperature: 12.8°C (55°F)
Dewpoint: 11.1°C (52°F) [RH = 89%]
Pressure (altimeter): 29.94 inches Hg (1014.0 mb)
Winds: from the WNW (300 degrees) at 10 MPH (9 knots; 4.6 m/s)
Visibility: 10 or more miles (16+ km)
Ceiling: 900 feet AGL
Clouds: broken clouds at 900 feet AGL
overcast cloud deck at 1800 feet AGL
Weather: no significant weather observed at this time

METAR text: KBHM 180211Z 29011KT 10SM BKN011 BKN019 OVC038 13/12 A2994 RMK AO2 CIG 007V013 T01280117
Conditions at: KBHM (BIRMINGHAM , AL, US) observed 0211 UTC 18 February 2019
Temperature: 12.8°C (55°F)
Dewpoint: 11.7°C (53°F) [RH = 93%]
Pressure (altimeter): 29.94 inches Hg (1014.0 mb)
Winds: from the WNW (290 degrees) at 13 MPH (11 knots; 5.7 m/s)
Visibility: 10 or more miles (16+ km)
Ceiling: 1100 feet AGL
Clouds: broken clouds at 1100 feet AGL
broken clouds at 1900 feet AGL
overcast cloud deck at 3800 feet AGL
Weather: no significant weather observed at this time

METAR text: KBHM 180204Z 30009KT 10SM FEW007 BKN019 OVC038 13/12 A2994 RMK AO2 T01330117
Conditions at: KBHM (BIRMINGHAM , AL, US) observed 0204 UTC 18 February 2019
Temperature: 13.3°C (56°F)
Dewpoint: 11.7°C (53°F) [RH = 90%]
Pressure (altimeter): 29.94 inches Hg (1014.0 mb)
Winds: from the WNW (300 degrees) at 10 MPH (9 knots; 4.6 m/s)
Visibility: 10 or more miles (16+ km)
Ceiling: 1900 feet AGL
Clouds: few clouds at 700 feet AGL
broken clouds at 1900 feet AGL
overcast cloud deck at 3800 feet AGL
Weather: no significant weather observed at this time

METAR text: KBHM 180153Z 31009KT 10SM FEW019 FEW025 OVC038 13/12 A2993 RMK AO2 RAE10 SLP133 P0001 T01330117
Conditions at: KBHM (BIRMINGHAM , AL, US) observed 0153 UTC 18 February 2019
Temperature: 13.3°C (56°F)
Dewpoint: 11.7°C (53°F) [RH = 90%]
Pressure (altimeter): 29.93 inches Hg (1013.6 mb)
[Sea-level pressure: 1013.3 mb]
Winds: from the NW (310 degrees) at 10 MPH (9 knots; 4.6 m/s)
Visibility: 10 or more miles (16+ km)
Ceiling: 3800 feet AGL
Clouds: few clouds at 1900 feet AGL
few clouds at 2500 feet AGL
overcast cloud deck at 3800 feet AGL
Weather: no significant weather observed at this time

METAR text: KBHM 180129Z 30011G22KT 10SM FEW014 FEW023 OVC036 14/12 A2993 RMK AO2 RAE10 P0001 T01390117
Conditions at: KBHM (BIRMINGHAM , AL, US) observed 0129 UTC 18 February 2019
Temperature: 13.9°C (57°F)
Dewpoint: 11.7°C (53°F) [RH = 87%]
Pressure (altimeter): 29.93 inches Hg (1013.6 mb)
Winds: from the WNW (300 degrees) at 13 MPH (11 knots; 5.7 m/s)
gusting to 25 MPH (22 knots; 11.3 m/s)
Visibility: 10 or more miles (16+ km)
Ceiling: 3600 feet AGL
Clouds: few clouds at 1400 feet AGL
few clouds at 2300 feet AGL
overcast cloud deck at 3600 feet AGL
Weather: no significant weather observed at this time

METAR text: KBHM 180106Z 30013G23KT 8SM -RA SCT010 BKN016 OVC034 14/13 A2991 RMK AO2 P0001 T01440128
Conditions at: KBHM (BIRMINGHAM , AL, US) observed 0106 UTC 18 February 2019
Temperature: 14.4°C (58°F)
Dewpoint: 12.8°C (55°F) [RH = 90%]
Pressure (altimeter): 29.91 inches Hg (1013.0 mb)
Winds: from the WNW (300 degrees) at 15 MPH (13 knots; 6.7 m/s)
gusting to 26 MPH (23 knots; 11.8 m/s)
Visibility: 8 miles (13 km)
Ceiling: 1600 feet AGL
Clouds: scattered clouds at 1000 feet AGL
broken clouds at 1600 feet AGL
overcast cloud deck at 3400 feet AGL
Weather: -RA  (light rain)

METAR text: KBHM 180053Z 31016G26KT 6SM -RA BR BKN008 OVC015 15/13 A2990 RMK AO2 PK WND 28028/0034 RAB2358 CIG 005V011 PRESRR SLP121 P0022 T01500133
Conditions at: KBHM (BIRMINGHAM , AL, US) observed 0053 UTC 18 February 2019
Temperature: 15.0°C (59°F)
Dewpoint: 13.3°C (56°F) [RH = 90%]
Pressure (altimeter): 29.90 inches Hg (1012.6 mb)
[Sea-level pressure: 1012.1 mb]
Winds: from the NW (310 degrees) at 18 MPH (16 knots; 8.2 m/s)
gusting to 30 MPH (26 knots; 13.4 m/s)
Visibility: 6 miles (10 km)
Ceiling: 800 feet AGL
Clouds: broken clouds at 800 feet AGL
overcast cloud deck at 1500 feet AGL
Weather: -RA BR  (light rain, mist)

METAR text: KBHM 180033Z 28020G27KT 3SM RA BR BKN006 OVC010 17/16 A2986 RMK AO2 PK WND 29027/0033 RAB2358 PRESRR P0021 T01720161
Conditions at: KBHM (BIRMINGHAM , AL, US) observed 0033 UTC 18 February 2019
Temperature: 17.2°C (63°F)
Dewpoint: 16.1°C (61°F) [RH = 93%]
Pressure (altimeter): 29.86 inches Hg (1011.3 mb)
Winds: from the W (280 degrees) at 23 MPH (20 knots; 10.3 m/s)
gusting to 31 MPH (27 knots; 13.9 m/s)
Visibility: 3 miles ( 5 km)
Ceiling: 600 feet AGL
Clouds: broken clouds at 600 feet AGL
overcast cloud deck at 1000 feet AGL
Weather: RA BR  (moderate rain, mist)

METAR text: KBHM 180019Z 30006KT 1 3/4SM +RA BR BKN006 OVC012 18/17 A2984 RMK AO2 RAB2358 P0006 T01780172
Conditions at: KBHM (BIRMINGHAM , AL, US) observed 0019 UTC 18 February 2019
Temperature: 17.8°C (64°F)
Dewpoint: 17.2°C (63°F) [RH = 96%]
Pressure (altimeter): 29.84 inches Hg (1010.6 mb)
Winds: from the WNW (300 degrees) at 7 MPH (6 knots; 3.1 m/s)
Visibility: 1.75 miles (2.82 km)
Ceiling: 600 feet AGL
Clouds: broken clouds at 600 feet AGL
overcast cloud deck at 1200 feet AGL
Weather: +RA BR  (heavy rain, mist)

METAR text: KBHM 180010Z 34005KT 4SM -RA BR SCT004 BKN009 OVC014 18/17 A2982 RMK AO2 RAB2358 P0001 T01780172
Conditions at: KBHM (BIRMINGHAM , AL, US) observed 0010 UTC 18 February 2019
Temperature: 17.8°C (64°F)
Dewpoint: 17.2°C (63°F) [RH = 96%]
Pressure (altimeter): 29.82 inches Hg (1009.9 mb)
Winds: from the NNW (340 degrees) at 6 MPH (5 knots; 2.6 m/s)
Visibility: 4 miles ( 6 km)
Ceiling: 900 feet AGL
Clouds: scattered clouds at 400 feet AGL
broken clouds at 900 feet AGL
overcast cloud deck at 1400 feet AGL
Weather: -RA BR  (light rain, mist)

METAR text: KBHM 180000Z 03003KT 4SM -RA BR SCT004 BKN010 OVC023 17/17 A2981 RMK AO2 RAB2358 P0000 T01720167
Conditions at: KBHM (BIRMINGHAM , AL, US) observed 0000 UTC 18 February 2019
Temperature: 17.2°C (63°F)
Dewpoint: 16.7°C (62°F) [RH = 97%]
Pressure (altimeter): 29.81 inches Hg (1009.6 mb)
Winds: from the NNE (30 degrees) at 3 MPH (3 knots; 1.5 m/s)
Visibility: 4 miles ( 6 km)
Ceiling: 1000 feet AGL
Clouds: scattered clouds at 400 feet AGL
broken clouds at 1000 feet AGL
overcast cloud deck at 2300 feet AGL
Weather: -RA BR  (light rain, mist)

METAR text: KBHM 172353Z 32003KT 5SM BR FEW004 BKN008 OVC050 17/17 A2981 RMK AO2 RAB13E33 SLP090 P0000 60021 T01720172 10183 20167 53010
Conditions at: KBHM (BIRMINGHAM , AL, US) observed 2353 UTC 17 February 2019
Temperature: 17.2°C (63°F)
Dewpoint: 17.2°C (63°F) [RH = 100%]
Pressure (altimeter): 29.81 inches Hg (1009.6 mb)
[Sea-level pressure: 1009.0 mb]
Winds: from the NW (320 degrees) at 3 MPH (3 knots; 1.5 m/s)
Visibility: 5 miles ( 8 km)
Ceiling: 800 feet AGL
Clouds: few clouds at 400 feet AGL
broken clouds at 800 feet AGL
overcast cloud deck at 5000 feet AGL
Weather: BR  (mist)

METAR text: KBHM 172334Z 04004KT 4SM BR BKN008 BKN035 OVC055 17/17 A2979 RMK AO2 RAB13E33 P0000 T01720167
Conditions at: KBHM (BIRMINGHAM , AL, US) observed 2334 UTC 17 February 2019
Temperature: 17.2°C (63°F)
Dewpoint: 16.7°C (62°F) [RH = 97%]
Pressure (altimeter): 29.79 inches Hg (1008.9 mb)
Winds: from the NE (40 degrees) at 5 MPH (4 knots; 2.1 m/s)
Visibility: 4 miles ( 6 km)
Ceiling: 800 feet AGL
Clouds: broken clouds at 800 feet AGL
broken clouds at 3500 feet AGL
overcast cloud deck at 5500 feet AGL
Weather: BR  (mist)

Forecast for: KBHM (BIRMINGHAM , AL, US)
Text: KBHM 190525Z 1906/2006 03005KT P6SM -SHRA OVC100
Forecast period: 0600 to 1500 UTC 19 February 2019
Forecast type: FROM: standard forecast or significant change
Winds: from the NNE (30 degrees) at 6 MPH (5 knots; 2.6 m/s)
Visibility: 6 or more miles 10+ km)
Ceiling: 10000 feet AGL
Clouds: overcast cloud deck at 10000 feet AGL
Weather: -SHRA  (light rain showers)
Text: FM191500 06011KT P6SM VCSH OVC050
Forecast period: 1500 to 1800 UTC 19 February 2019
Forecast type: FROM: standard forecast or significant change
Winds: from the ENE (60 degrees) at 13 MPH (11 knots; 5.7 m/s)
Visibility: 6 or more miles 10+ km)
Ceiling: 5000 feet AGL
Clouds: overcast cloud deck at 5000 feet AGL
Weather: VCSH  (showers in vicinity)
Text: FM191800 06012G18KT P6SM VCSH OVC025
Forecast period: 1800 to 2000 UTC 19 February 2019
Forecast type: FROM: standard forecast or significant change
Winds: from the ENE (60 degrees) at 14 MPH (12 knots; 6.2 m/s)
gusting to 21 MPH (18 knots; 9.3 m/s)
Visibility: 6 or more miles 10+ km)
Ceiling: 2500 feet AGL
Clouds: overcast cloud deck at 2500 feet AGL
Weather: VCSH  (showers in vicinity)
Text: FM192000 07013G20KT 5SM SHRA OVC015
Forecast period: 2000 to 2200 UTC 19 February 2019
Forecast type: FROM: standard forecast or significant change
Winds: from the ENE (70 degrees) at 15 MPH (13 knots; 6.7 m/s)
gusting to 23 MPH (20 knots; 10.3 m/s)
Visibility: 5 miles (8 km)
Ceiling: 1500 feet AGL
Clouds: overcast cloud deck at 1500 feet AGL
Weather: SHRA  (rain showers)
Text: FM192200 08013G20KT 5SM -SHRA OVC007
Forecast period: 2200 UTC 19 February 2019 to 0600 UTC 20 February 2019
Forecast type: FROM: standard forecast or significant change
Winds: from the E (80 degrees) at 15 MPH (13 knots; 6.7 m/s)
gusting to 23 MPH (20 knots; 10.3 m/s)
Visibility: 5 miles (8 km)
Ceiling: 700 feet AGL
Clouds: overcast cloud deck at 700 feet AGL
Weather: -SHRA  (light rain showers)